Poyen, Arkansas
Current Conditions -  °F | °C
As of 9:53 PM on Thursday 27 Nov 2014 (Local Time) from KHOT Reporting Station
Clear Clear  
Wind Chill: 34°   Ceiling: Unl
Heat Index: 34°   Visibility: 10mi
Dew Point: 28°   Wind: 3mph
Humidity: 79%   Direction: 80°E
Pressure: 30.45"   Gusts: NA
Location:  34.32°N, 92.64°W
Report Text: KHOT 280353Z AUTO 08003KT 10SM CLR 01/M02 A3045 RMK AO2 SLP313 T00111022
Loading
Personal Weather Stations






























Interactive Weather Map New forecast layout! Learn more

10-Day Weather Forecast

Advertisements
Track Severe Weather on mobile